EDMAENSB

Guest
Details From EDMA - Augsburg
To ENSB - Svalbard Longyear
Flight Number -
Tags Generated
Created
Modified
Stats Distance 1,795 nm / 3,323 km
Max Altitude 0 ft / 0 m
Waypoints 7
Social Downloads 0
Likes 0
Share VATSIM

Download

Looking for another format? Having issues loading an existing format? Contact us
Advertisement - Login to hide

Notes

Generated

Route

EDMA ABGUS TNO02 GOTUR SOLKA LON ENSB

ID Type Via Altitude Latitude Longitude Leg Dist Tot Dist Heading (true) Name
O EDMA APT - 0 ft / 0 m 48.42183˚ 10.93031˚ - 0 nm - Augsburg
ABGUS FIX - 0 ft / 0 m 51.86694˚ 11.05333˚ 206 nm 206 nm 1° / 1° -
TNO02 FIX - 0 ft / 0 m 55.78444˚ 11.36972˚ 235 nm 442 nm 3° / 3° -
GOTUR FIX - 0 ft / 0 m 59.90000˚ 11.58333˚ 247 nm 689 nm 1° / 2° -
SOLKA FIX - 0 ft / 0 m 63.33083˚ 12.05250˚ 206 nm 896 nm 4° / 4° -
LON NDB - 0 ft / 0 m 78.24973˚ 15.40121˚ 898 nm 1794 nm 3° / 6° LONGYEAR NDB
O ENSB APT - 0 ft / 0 m 78.24879˚ 15.41805˚ 0 nm 1794 nm 105° / 105° -

Altitude Profile

Advertisement - Login to hide

Weather


0- 5 10 15 20 25 30 35+ Temperature / ° C

Clouds and Precipitation
Forecast for 2017-12-15 18:00 UTC. Updated an hour ago

Ground ~20,000 ft ~40,000 ft Winds

EDMA

Details ICAO EDMA (AGB)
Name Augsburg
Region Germany - Civil
Timezone Europe/Berlin (UTC+1.0)
Stats Elevation 1,515 ft / 462 m (AMSL)
Location 48.424245° 10.934277°
Runways 2
Magnetic Variation 2.954° E

METAR

EDMA 151750Z 22006KT CAVOK 01/M03 Q1000

Decode

TAF

Not found

Departure Runways

ID Width Length Bearing (true) Bearing (mag) Surface Threshold Offset Overrun Length
07 98 ft / 30 m 4,186 ft / 1,276 m 71.38° 68.43° Asphalt 0 ft / 0 m 164 ft / 50 m
07L 100 ft / 30 m 3,320 ft / 1,012 m 71.47° 68.52° Grass 0 ft / 0 m 0 ft / 0 m
25 98 ft / 30 m 4,186 ft / 1,276 m 251.39° 248.44° Asphalt 0 ft / 0 m 164 ft / 50 m
25R 100 ft / 30 m 3,320 ft / 1,012 m 251.48° 248.53° Grass 0 ft / 0 m 0 ft / 0 m

ENSB

Details ICAO ENSB (LYR)
Name Svalbard Longyear
Region Norway
Timezone Arctic/Longyearbyen (UTC+1.0)
Stats Elevation 88 ft / 27 m (AMSL)
Location 78.246037° 15.467196°
Runways 1
Magnetic Variation 8.853° E

METAR

ENSB 151750Z 11009KT 9999 FEW020 BKN050 M08/M13 Q1002 RMK WIND 1400FT 12006KT

Decode

TAF

TAF ENSB 151700Z 1518/1618 12008KT 9999 FEW020 BKN040

Decode

Destination Runways

ID Width Length Bearing (true) Bearing (mag) Surface Threshold Offset Overrun Length
10 148 ft / 45 m 7,578 ft / 2,310 m 105.32° 96.47° Asphalt 199 ft / 61 m 0 ft / 0 m
28 148 ft / 45 m 7,578 ft / 2,310 m 285.42° 276.57° Asphalt 395 ft / 120 m 0 ft / 0 m

Approach Navaids

Runway Type Ident Frequency Range Bearing (true) Bearing (mag) Slope Elevation
10 Localiser LB 110.30 MHz 18 nm / 33 km 105.42° 96.57° - 111 ft / 34 m (AMSL)
10 Glidescope LB 110.30 MHz 10 nm / 19 km 105.37° 96.51° 3.00° 88 ft / 27 m (AMSL)
28 Localiser LA 109.50 MHz 18 nm / 33 km 302.89° 294.04° - 153 ft / 47 m (AMSL)